sensor_id;sensor_type;location;lat;lon;timestamp;temperature;humidity
8152;DHT22;4117;53.622;9.958;2022-09-09T00:00:55;14.10;99.90
8152;DHT22;4117;53.622;9.958;2022-09-09T00:03:27;14.10;99.90
8152;DHT22;4117;53.622;9.958;2022-09-09T00:06:01;14.10;99.90
8152;DHT22;4117;53.622;9.958;2022-09-09T00:08:38;14.10;99.90
8152;DHT22;4117;53.622;9.958;2022-09-09T00:11:11;14.20;99.90
8152;DHT22;4117;53.622;9.958;2022-09-09T00:13:42;14.20;99.90
8152;DHT22;4117;53.622;9.958;2022-09-09T00:16:17;14.20;99.90
8152;DHT22;4117;53.622;9.958;2022-09-09T00:18:52;14.30;99.90
8152;DHT22;4117;53.622;9.958;2022-09-09T00:21:28;14.20;99.90
8152;DHT22;4117;53.622;9.958;2022-09-09T00:23:58;14.20;99.90
8152;DHT22;4117;53.622;9.958;2022-09-09T00:26:31;14.30;99.90
8152;DHT22;4117;53.622;9.958;2022-09-09T00:29:04;14.20;99.90
8152;DHT22;4117;53.622;9.958;2022-09-09T00:31:32;14.20;99.90
8152;DHT22;4117;53.622;9.958;2022-09-09T00:34:04;14.20;99.90
8152;DHT22;4117;53.622;9.958;2022-09-09T00:36:35;14.20;99.90
8152;DHT22;4117;53.622;9.958;2022-09-09T00:39:02;14.20;99.90
8152;DHT22;4117;53.622;9.958;2022-09-09T00:41:43;14.20;99.90
8152;DHT22;4117;53.622;9.958;2022-09-09T00:44:27;14.10;99.90
8152;DHT22;4117;53.622;9.958;2022-09-09T00:47:16;14.20;99.90
8152;DHT22;4117;53.622;9.958;2022-09-09T00:49:57;14.20;99.90
8152;DHT22;4117;53.622;9.958;2022-09-09T00:52:34;14.20;99.90
8152;DHT22;4117;53.622;9.958;2022-09-09T00:55:07;14.20;99.90
8152;DHT22;4117;53.622;9.958;2022-09-09T00:57:38;14.20;99.90
8152;DHT22;4117;53.622;9.958;2022-09-09T01:00:23;14.20;99.90
8152;DHT22;4117;53.622;9.958;2022-09-09T01:03:08;14.20;99.90
8152;DHT22;4117;53.622;9.958;2022-09-09T01:05:42;14.20;99.90
8152;DHT22;4117;53.622;9.958;2022-09-09T01:08:21;14.20;99.90
8152;DHT22;4117;53.622;9.958;2022-09-09T01:10:54;14.20;99.90
8152;DHT22;4117;53.622;9.958;2022-09-09T01:13:24;14.20;99.90
8152;DHT22;4117;53.622;9.958;2022-09-09T01:15:53;14.30;99.90
8152;DHT22;4117;53.622;9.958;2022-09-09T01:18:22;14.30;99.90
8152;DHT22;4117;53.622;9.958;2022-09-09T01:21:00;14.30;99.90
8152;DHT22;4117;53.622;9.958;2022-09-09T01:23:54;14.30;99.90
8152;DHT22;4117;53.622;9.958;2022-09-09T01:26:31;14.30;99.90
8152;DHT22;4117;53.622;9.958;2022-09-09T01:28:59;14.30;99.90
8152;DHT22;4117;53.622;9.958;2022-09-09T01:31:28;14.30;99.90
8152;DHT22;4117;53.622;9.958;2022-09-09T01:33:57;14.30;99.90
8152;DHT22;4117;53.622;9.958;2022-09-09T01:36:28;14.30;99.90
8152;DHT22;4117;53.622;9.958;2022-09-09T01:38:56;14.30;99.90
8152;DHT22;4117;53.622;9.958;2022-09-09T01:41:23;14.30;99.90
8152;DHT22;4117;53.622;9.958;2022-09-09T01:43:53;14.40;99.90
8152;DHT22;4117;53.622;9.958;2022-09-09T01:46:21;14.40;99.90
8152;DHT22;4117;53.622;9.958;2022-09-09T01:48:49;14.40;99.90
8152;DHT22;4117;53.622;9.958;2022-09-09T01:51:16;14.40;99.90
8152;DHT22;4117;53.622;9.958;2022-09-09T01:53:45;14.40;99.90
8152;DHT22;4117;53.622;9.958;2022-09-09T01:59:08;14.40;99.90
8152;DHT22;4117;53.622;9.958;2022-09-09T02:01:48;14.40;99.90
8152;DHT22;4117;53.622;9.958;2022-09-09T02:04:28;14.40;99.90
8152;DHT22;4117;53.622;9.958;2022-09-09T02:07:00;14.40;99.90
8152;DHT22;4117;53.622;9.958;2022-09-09T02:09:29;14.40;99.90
8152;DHT22;4117;53.622;9.958;2022-09-09T02:12:00;14.40;99.90
8152;DHT22;4117;53.622;9.958;2022-09-09T02:14:33;14.30;99.90
8152;DHT22;4117;53.622;9.958;2022-09-09T02:17:05;14.30;99.90
8152;DHT22;4117;53.622;9.958;2022-09-09T02:19:37;14.30;99.90
8152;DHT22;4117;53.622;9.958;2022-09-09T02:22:06;14.30;99.90
8152;DHT22;4117;53.622;9.958;2022-09-09T02:24:35;14.20;99.90
8152;DHT22;4117;53.622;9.958;2022-09-09T02:27:05;14.20;99.90
8152;DHT22;4117;53.622;9.958;2022-09-09T02:29:38;14.20;99.90
8152;DHT22;4117;53.622;9.958;2022-09-09T02:32:08;14.20;99.90
8152;DHT22;4117;53.622;9.958;2022-09-09T02:34:39;14.10;99.90
8152;DHT22;4117;53.622;9.958;2022-09-09T02:37:08;14.10;99.90
8152;DHT22;4117;53.622;9.958;2022-09-09T02:39:36;14.10;99.90
8152;DHT22;4117;53.622;9.958;2022-09-09T02:42:04;14.10;99.90
8152;DHT22;4117;53.622;9.958;2022-09-09T02:44:31;14.00;99.90
8152;DHT22;4117;53.622;9.958;2022-09-09T02:47:18;14.00;99.90
8152;DHT22;4117;53.622;9.958;2022-09-09T02:49:55;14.00;99.90
8152;DHT22;4117;53.622;9.958;2022-09-09T02:52:36;14.00;99.90
8152;DHT22;4117;53.622;9.958;2022-09-09T02:55:12;14.00;99.90
8152;DHT22;4117;53.622;9.958;2022-09-09T02:57:43;14.00;99.90
8152;DHT22;4117;53.622;9.958;2022-09-09T03:00:13;13.90;99.90
8152;DHT22;4117;53.622;9.958;2022-09-09T03:02:41;13.90;99.90
8152;DHT22;4117;53.622;9.958;2022-09-09T03:05:08;13.90;99.90
8152;DHT22;4117;53.622;9.958;2022-09-09T03:07:35;13.80;99.90
8152;DHT22;4117;53.622;9.958;2022-09-09T03:10:02;13.80;99.90
8152;DHT22;4117;53.622;9.958;2022-09-09T03:12:29;13.80;99.90
8152;DHT22;4117;53.622;9.958;2022-09-09T03:14:56;13.80;99.90
8152;DHT22;4117;53.622;9.958;2022-09-09T03:17:23;13.80;99.90
8152;DHT22;4117;53.622;9.958;2022-09-09T03:19:51;13.70;99.90
8152;DHT22;4117;53.622;9.958;2022-09-09T03:22:20;13.70;99.90
8152;DHT22;4117;53.622;9.958;2022-09-09T03:24:46;13.70;99.90
8152;DHT22;4117;53.622;9.958;2022-09-09T03:27:13;13.60;99.90
8152;DHT22;4117;53.622;9.958;2022-09-09T03:29:40;13.60;99.90
8152;DHT22;4117;53.622;9.958;2022-09-09T03:32:07;13.60;99.90
8152;DHT22;4117;53.622;9.958;2022-09-09T03:34:35;13.60;99.90
8152;DHT22;4117;53.622;9.958;2022-09-09T03:37:07;13.60;99.90
8152;DHT22;4117;53.622;9.958;2022-09-09T03:39:33;13.50;99.90
8152;DHT22;4117;53.622;9.958;2022-09-09T03:42:00;13.50;99.90
8152;DHT22;4117;53.622;9.958;2022-09-09T03:44:29;13.50;99.90
8152;DHT22;4117;53.622;9.958;2022-09-09T03:46:56;13.50;99.90
8152;DHT22;4117;53.622;9.958;2022-09-09T03:49:25;13.40;99.90
8152;DHT22;4117;53.622;9.958;2022-09-09T03:51:54;13.40;99.90
8152;DHT22;4117;53.622;9.958;2022-09-09T03:54:23;13.40;99.90
8152;DHT22;4117;53.622;9.958;2022-09-09T03:56:50;13.30;99.90
8152;DHT22;4117;53.622;9.958;2022-09-09T03:59:17;13.30;99.90
8152;DHT22;4117;53.622;9.958;2022-09-09T04:01:43;13.30;99.90
8152;DHT22;4117;53.622;9.958;2022-09-09T04:04:10;13.20;99.90
8152;DHT22;4117;53.622;9.958;2022-09-09T04:06:37;13.20;99.90
8152;DHT22;4117;53.622;9.958;2022-09-09T04:09:04;13.20;99.90
8152;DHT22;4117;53.622;9.958;2022-09-09T04:11:32;13.20;99.90
8152;DHT22;4117;53.622;9.958;2022-09-09T04:13:59;13.10;99.90
8152;DHT22;4117;53.622;9.958;2022-09-09T04:16:26;13.10;99.90
8152;DHT22;4117;53.622;9.958;2022-09-09T04:18:53;13.10;99.90
8152;DHT22;4117;53.622;9.958;2022-09-09T04:21:21;13.10;99.90
8152;DHT22;4117;53.622;9.958;2022-09-09T04:23:48;13.10;99.90
8152;DHT22;4117;53.622;9.958;2022-09-09T04:26:15;13.10;99.90
8152;DHT22;4117;53.622;9.958;2022-09-09T04:28:43;13.10;99.90
8152;DHT22;4117;53.622;9.958;2022-09-09T04:31:14;13.10;99.90
8152;DHT22;4117;53.622;9.958;2022-09-09T04:33:41;13.00;99.90
8152;DHT22;4117;53.622;9.958;2022-09-09T04:36:08;13.10;99.90
8152;DHT22;4117;53.622;9.958;2022-09-09T04:38:35;13.00;99.90
8152;DHT22;4117;53.622;9.958;2022-09-09T04:41:02;13.00;99.90
8152;DHT22;4117;53.622;9.958;2022-09-09T04:43:29;13.00;99.90
8152;DHT22;4117;53.622;9.958;2022-09-09T04:45:57;13.00;99.90
8152;DHT22;4117;53.622;9.958;2022-09-09T04:48:24;13.00;99.90
8152;DHT22;4117;53.622;9.958;2022-09-09T04:50:56;13.00;99.90
8152;DHT22;4117;53.622;9.958;2022-09-09T04:53:23;13.00;99.90
8152;DHT22;4117;53.622;9.958;2022-09-09T04:55:50;12.90;99.90
8152;DHT22;4117;53.622;9.958;2022-09-09T04:58:18;13.00;99.90
8152;DHT22;4117;53.622;9.958;2022-09-09T05:00:47;13.00;99.90
8152;DHT22;4117;53.622;9.958;2022-09-09T05:03:15;13.00;99.90
8152;DHT22;4117;53.622;9.958;2022-09-09T05:05:42;13.00;99.90
8152;DHT22;4117;53.622;9.958;2022-09-09T05:08:10;13.10;99.90
8152;DHT22;4117;53.622;9.958;2022-09-09T05:10:38;13.00;99.90
8152;DHT22;4117;53.622;9.958;2022-09-09T05:13:07;13.10;99.90
8152;DHT22;4117;53.622;9.958;2022-09-09T05:15:34;13.10;99.90
8152;DHT22;4117;53.622;9.958;2022-09-09T05:18:01;13.10;99.90
8152;DHT22;4117;53.622;9.958;2022-09-09T05:20:30;13.10;99.90
8152;DHT22;4117;53.622;9.958;2022-09-09T05:22:57;13.10;99.90
8152;DHT22;4117;53.622;9.958;2022-09-09T05:25:24;13.20;99.90
8152;DHT22;4117;53.622;9.958;2022-09-09T05:27:52;13.10;99.90
8152;DHT22;4117;53.622;9.958;2022-09-09T05:30:20;13.10;99.90
8152;DHT22;4117;53.622;9.958;2022-09-09T05:32:47;13.20;99.90
8152;DHT22;4117;53.622;9.958;2022-09-09T05:35:14;13.10;99.90
8152;DHT22;4117;53.622;9.958;2022-09-09T05:37:43;13.10;99.90
8152;DHT22;4117;53.622;9.958;2022-09-09T05:40:11;13.20;99.90
8152;DHT22;4117;53.622;9.958;2022-09-09T05:42:38;13.10;99.90
8152;DHT22;4117;53.622;9.958;2022-09-09T05:45:06;13.20;99.90
8152;DHT22;4117;53.622;9.958;2022-09-09T05:47:34;13.10;99.90
8152;DHT22;4117;53.622;9.958;2022-09-09T05:50:03;13.20;99.90
8152;DHT22;4117;53.622;9.958;2022-09-09T05:52:30;13.20;99.90
8152;DHT22;4117;53.622;9.958;2022-09-09T05:54:58;13.20;99.90
8152;DHT22;4117;53.622;9.958;2022-09-09T05:57:25;13.20;99.90
8152;DHT22;4117;53.622;9.958;2022-09-09T05:59:52;13.30;99.90
8152;DHT22;4117;53.622;9.958;2022-09-09T06:02:19;13.30;99.90
8152;DHT22;4117;53.622;9.958;2022-09-09T06:04:45;13.30;99.90
8152;DHT22;4117;53.622;9.958;2022-09-09T06:07:12;13.30;99.90
8152;DHT22;4117;53.622;9.958;2022-09-09T06:09:40;13.40;99.90
8152;DHT22;4117;53.622;9.958;2022-09-09T06:12:08;13.40;99.90
8152;DHT22;4117;53.622;9.958;2022-09-09T06:14:35;13.50;99.90
8152;DHT22;4117;53.622;9.958;2022-09-09T06:17:02;13.60;99.90
8152;DHT22;4117;53.622;9.958;2022-09-09T06:19:29;13.60;99.90
8152;DHT22;4117;53.622;9.958;2022-09-09T06:21:56;13.70;99.90
8152;DHT22;4117;53.622;9.958;2022-09-09T06:24:23;13.70;99.90
8152;DHT22;4117;53.622;9.958;2022-09-09T06:26:49;13.80;99.90
8152;DHT22;4117;53.622;9.958;2022-09-09T06:29:17;13.80;99.90
8152;DHT22;4117;53.622;9.958;2022-09-09T06:31:44;13.80;99.90
8152;DHT22;4117;53.622;9.958;2022-09-09T06:34:11;13.90;99.90
8152;DHT22;4117;53.622;9.958;2022-09-09T06:36:39;13.90;99.90
8152;DHT22;4117;53.622;9.958;2022-09-09T06:39:06;13.90;99.90
8152;DHT22;4117;53.622;9.958;2022-09-09T06:41:34;13.90;99.90
8152;DHT22;4117;53.622;9.958;2022-09-09T06:44:01;13.90;99.90
8152;DHT22;4117;53.622;9.958;2022-09-09T06:46:31;14.00;99.90
8152;DHT22;4117;53.622;9.958;2022-09-09T06:48:59;14.00;99.90
8152;DHT22;4117;53.622;9.958;2022-09-09T06:51:27;14.00;99.90
8152;DHT22;4117;53.622;9.958;2022-09-09T06:53:56;14.00;99.90
8152;DHT22;4117;53.622;9.958;2022-09-09T06:56:25;14.10;99.90
8152;DHT22;4117;53.622;9.958;2022-09-09T06:58:54;14.10;99.90
8152;DHT22;4117;53.622;9.958;2022-09-09T07:01:23;14.20;99.90
8152;DHT22;4117;53.622;9.958;2022-09-09T07:03:52;14.20;99.90
8152;DHT22;4117;53.622;9.958;2022-09-09T07:06:21;14.30;99.90
8152;DHT22;4117;53.622;9.958;2022-09-09T07:08:50;14.30;99.90
8152;DHT22;4117;53.622;9.958;2022-09-09T07:11:19;14.40;99.90
8152;DHT22;4117;53.622;9.958;2022-09-09T07:13:47;14.40;99.90
8152;DHT22;4117;53.622;9.958;2022-09-09T07:16:16;14.50;99.90
8152;DHT22;4117;53.622;9.958;2022-09-09T07:18:43;14.60;99.90
8152;DHT22;4117;53.622;9.958;2022-09-09T07:21:13;14.70;99.90
8152;DHT22;4117;53.622;9.958;2022-09-09T07:23:40;14.80;99.90
8152;DHT22;4117;53.622;9.958;2022-09-09T07:26:09;14.90;99.90
8152;DHT22;4117;53.622;9.958;2022-09-09T07:28:37;15.00;99.90
8152;DHT22;4117;53.622;9.958;2022-09-09T07:31:05;15.00;99.90
8152;DHT22;4117;53.622;9.958;2022-09-09T07:33:34;15.00;99.90
8152;DHT22;4117;53.622;9.958;2022-09-09T07:36:06;15.00;99.90
8152;DHT22;4117;53.622;9.958;2022-09-09T07:38:39;15.00;99.90
8152;DHT22;4117;53.622;9.958;2022-09-09T07:41:08;15.00;99.90
8152;DHT22;4117;53.622;9.958;2022-09-09T07:43:37;15.00;99.90
8152;DHT22;4117;53.622;9.958;2022-09-09T07:46:05;15.10;99.90
8152;DHT22;4117;53.622;9.958;2022-09-09T07:48:32;15.20;99.90
8152;DHT22;4117;53.622;9.958;2022-09-09T07:51:05;15.30;99.90
8152;DHT22;4117;53.622;9.958;2022-09-09T07:53:33;15.20;99.90
8152;DHT22;4117;53.622;9.958;2022-09-09T07:56:04;15.20;99.90
8152;DHT22;4117;53.622;9.958;2022-09-09T07:58:31;15.20;99.90
8152;DHT22;4117;53.622;9.958;2022-09-09T08:00:58;15.30;99.90
8152;DHT22;4117;53.622;9.958;2022-09-09T08:03:25;15.30;99.90
8152;DHT22;4117;53.622;9.958;2022-09-09T08:05:52;15.30;99.90
8152;DHT22;4117;53.622;9.958;2022-09-09T08:08:19;15.30;99.90
8152;DHT22;4117;53.622;9.958;2022-09-09T08:10:45;15.30;99.90
8152;DHT22;4117;53.622;9.958;2022-09-09T08:13:13;15.30;99.90
8152;DHT22;4117;53.622;9.958;2022-09-09T08:15:41;15.30;99.90
8152;DHT22;4117;53.622;9.958;2022-09-09T08:18:08;15.30;99.90
8152;DHT22;4117;53.622;9.958;2022-09-09T08:20:36;15.40;99.90
8152;DHT22;4117;53.622;9.958;2022-09-09T08:23:03;15.40;99.90
8152;DHT22;4117;53.622;9.958;2022-09-09T08:25:30;15.40;99.90
8152;DHT22;4117;53.622;9.958;2022-09-09T08:27:57;15.50;99.90
8152;DHT22;4117;53.622;9.958;2022-09-09T08:30:25;15.50;99.90
8152;DHT22;4117;53.622;9.958;2022-09-09T08:32:52;15.50;99.90
8152;DHT22;4117;53.622;9.958;2022-09-09T08:35:19;15.50;99.90
8152;DHT22;4117;53.622;9.958;2022-09-09T08:37:46;15.50;99.90
8152;DHT22;4117;53.622;9.958;2022-09-09T08:40:19;15.60;99.90
8152;DHT22;4117;53.622;9.958;2022-09-09T08:42:50;15.50;99.90
8152;DHT22;4117;53.622;9.958;2022-09-09T08:45:26;15.60;99.90
8152;DHT22;4117;53.622;9.958;2022-09-09T08:48:17;15.60;99.90
8152;DHT22;4117;53.622;9.958;2022-09-09T08:50:49;15.60;99.90
8152;DHT22;4117;53.622;9.958;2022-09-09T08:53:20;15.60;99.90
8152;DHT22;4117;53.622;9.958;2022-09-09T08:55:50;15.60;99.90
8152;DHT22;4117;53.622;9.958;2022-09-09T08:58:20;15.70;99.90
8152;DHT22;4117;53.622;9.958;2022-09-09T09:01:20;15.70;99.90
8152;DHT22;4117;53.622;9.958;2022-09-09T09:04:00;15.70;99.90
8152;DHT22;4117;53.622;9.958;2022-09-09T09:06:39;15.70;99.90
8152;DHT22;4117;53.622;9.958;2022-09-09T09:09:11;15.80;99.90
8152;DHT22;4117;53.622;9.958;2022-09-09T09:11:45;15.80;99.90
8152;DHT22;4117;53.622;9.958;2022-09-09T09:14:18;15.80;99.90
8152;DHT22;4117;53.622;9.958;2022-09-09T09:16:53;15.90;99.90
8152;DHT22;4117;53.622;9.958;2022-09-09T09:19:20;15.90;99.90
8152;DHT22;4117;53.622;9.958;2022-09-09T09:21:51;15.90;99.90
8152;DHT22;4117;53.622;9.958;2022-09-09T09:24:21;16.00;99.90
8152;DHT22;4117;53.622;9.958;2022-09-09T09:26:50;16.00;99.90
8152;DHT22;4117;53.622;9.958;2022-09-09T09:29:19;16.00;99.90
8152;DHT22;4117;53.622;9.958;2022-09-09T09:31:50;16.00;99.90
8152;DHT22;4117;53.622;9.958;2022-09-09T09:34:18;16.10;99.90
8152;DHT22;4117;53.622;9.958;2022-09-09T09:36:52;16.10;99.90
8152;DHT22;4117;53.622;9.958;2022-09-09T09:39:24;16.20;99.90
8152;DHT22;4117;53.622;9.958;2022-09-09T09:41:52;16.20;99.90
8152;DHT22;4117;53.622;9.958;2022-09-09T09:44:24;16.20;99.90
8152;DHT22;4117;53.622;9.958;2022-09-09T09:46:53;16.20;99.90
8152;DHT22;4117;53.622;9.958;2022-09-09T09:49:31;16.30;99.90
8152;DHT22;4117;53.622;9.958;2022-09-09T09:52:00;16.30;99.90
8152;DHT22;4117;53.622;9.958;2022-09-09T09:54:28;16.30;99.90
8152;DHT22;4117;53.622;9.958;2022-09-09T09:56:56;16.30;99.90
8152;DHT22;4117;53.622;9.958;2022-09-09T09:59:34;16.40;99.90
8152;DHT22;4117;53.622;9.958;2022-09-09T10:02:19;16.50;99.90
8152;DHT22;4117;53.622;9.958;2022-09-09T10:04:48;16.60;99.90
8152;DHT22;4117;53.622;9.958;2022-09-09T10:07:19;16.70;99.90
8152;DHT22;4117;53.622;9.958;2022-09-09T10:09:48;16.70;99.90
8152;DHT22;4117;53.622;9.958;2022-09-09T10:12:27;16.70;99.90
8152;DHT22;4117;53.622;9.958;2022-09-09T10:15:00;16.80;99.90
8152;DHT22;4117;53.622;9.958;2022-09-09T10:17:38;16.80;96.70
8152;DHT22;4117;53.622;9.958;2022-09-09T10:20:20;16.90;89.10
8152;DHT22;4117;53.622;9.958;2022-09-09T10:22:51;16.90;95.10
8152;DHT22;4117;53.622;9.958;2022-09-09T10:25:37;16.90;93.80
8152;DHT22;4117;53.622;9.958;2022-09-09T10:28:26;16.90;98.00
8152;DHT22;4117;53.622;9.958;2022-09-09T10:31:02;16.90;92.40
8152;DHT22;4117;53.622;9.958;2022-09-09T10:33:39;16.80;88.10
8152;DHT22;4117;53.622;9.958;2022-09-09T10:36:15;16.90;82.40
8152;DHT22;4117;53.622;9.958;2022-09-09T10:38:46;16.90;86.30
8152;DHT22;4117;53.622;9.958;2022-09-09T10:41:18;17.00;89.80
8152;DHT22;4117;53.622;9.958;2022-09-09T10:44:06;17.10;89.40
8152;DHT22;4117;53.622;9.958;2022-09-09T10:46:46;17.20;93.50
8152;DHT22;4117;53.622;9.958;2022-09-09T10:49:30;17.20;89.80
8152;DHT22;4117;53.622;9.958;2022-09-09T10:52:04;17.30;82.90
8152;DHT22;4117;53.622;9.958;2022-09-09T10:54:45;17.30;76.60
8152;DHT22;4117;53.622;9.958;2022-09-09T10:57:25;17.30;53.10
8152;DHT22;4117;53.622;9.958;2022-09-09T10:59:56;17.30;47.80
8152;DHT22;4117;53.622;9.958;2022-09-09T11:02:27;17.40;57.30
8152;DHT22;4117;53.622;9.958;2022-09-09T11:04:59;17.60;56.70
8152;DHT22;4117;53.622;9.958;2022-09-09T11:07:33;17.60;56.60
8152;DHT22;4117;53.622;9.958;2022-09-09T11:10:13;17.60;56.60
8152;DHT22;4117;53.622;9.958;2022-09-09T11:12:43;17.50;56.60
8152;DHT22;4117;53.622;9.958;2022-09-09T11:15:18;17.70;56.70
8152;DHT22;4117;53.622;9.958;2022-09-09T11:17:49;17.70;55.30
8152;DHT22;4117;53.622;9.958;2022-09-09T11:20:18;17.70;56.70
8152;DHT22;4117;53.622;9.958;2022-09-09T11:22:50;17.70;55.90
8152;DHT22;4117;53.622;9.958;2022-09-09T11:25:21;17.70;52.70
8152;DHT22;4117;53.622;9.958;2022-09-09T11:28:02;17.80;50.70
8152;DHT22;4117;53.622;9.958;2022-09-09T11:30:42;17.80;56.40
8152;DHT22;4117;53.622;9.958;2022-09-09T11:33:36;17.90;42.30
8152;DHT22;4117;53.622;9.958;2022-09-09T11:36:21;17.90;44.60
8152;DHT22;4117;53.622;9.958;2022-09-09T11:38:54;17.90;37.60
8152;DHT22;4117;53.622;9.958;2022-09-09T11:41:23;17.90;44.60
8152;DHT22;4117;53.622;9.958;2022-09-09T11:43:51;18.00;47.10
8152;DHT22;4117;53.622;9.958;2022-09-09T11:46:20;18.20;31.40
8152;DHT22;4117;53.622;9.958;2022-09-09T11:48:58;18.20;40.10
8152;DHT22;4117;53.622;9.958;2022-09-09T11:51:28;18.20;32.20
8152;DHT22;4117;53.622;9.958;2022-09-09T11:53:58;18.20;39.10
8152;DHT22;4117;53.622;9.958;2022-09-09T11:56:28;18.20;36.90
8152;DHT22;4117;53.622;9.958;2022-09-09T11:59:01;18.30;39.30
8152;DHT22;4117;53.622;9.958;2022-09-09T12:01:37;18.40;38.70
8152;DHT22;4117;53.622;9.958;2022-09-09T12:04:32;18.60;40.40
8152;DHT22;4117;53.622;9.958;2022-09-09T12:07:05;18.50;29.90
8152;DHT22;4117;53.622;9.958;2022-09-09T12:09:50;18.40;32.20
8152;DHT22;4117;53.622;9.958;2022-09-09T12:12:29;18.40;32.20
8152;DHT22;4117;53.622;9.958;2022-09-09T12:17:55;18.40;32.20
8152;DHT22;4117;53.622;9.958;2022-09-09T12:20:26;18.40;32.20
8152;DHT22;4117;53.622;9.958;2022-09-09T12:23:18;18.40;34.30
8152;DHT22;4117;53.622;9.958;2022-09-09T12:26:03;18.40;32.20
8152;DHT22;4117;53.622;9.958;2022-09-09T12:28:42;18.40;33.90
8152;DHT22;4117;53.622;9.958;2022-09-09T12:31:16;18.40;38.00
8152;DHT22;4117;53.622;9.958;2022-09-09T12:33:45;18.30;36.70
8152;DHT22;4117;53.622;9.958;2022-09-09T12:36:15;18.30;38.90
8152;DHT22;4117;53.622;9.958;2022-09-09T12:38:45;18.30;45.00
8152;DHT22;4117;53.622;9.958;2022-09-09T12:41:20;18.30;44.90
8152;DHT22;4117;53.622;9.958;2022-09-09T12:43:47;18.30;44.50
8152;DHT22;4117;53.622;9.958;2022-09-09T12:46:21;18.30;55.80
8152;DHT22;4117;53.622;9.958;2022-09-09T12:48:48;18.20;70.40
8152;DHT22;4117;53.622;9.958;2022-09-09T12:51:19;18.10;62.80
8152;DHT22;4117;53.622;9.958;2022-09-09T12:53:49;18.00;70.30
8152;DHT22;4117;53.622;9.958;2022-09-09T12:56:20;18.00;82.90
8152;DHT22;4117;53.622;9.958;2022-09-09T12:58:48;18.00;90.20
8152;DHT22;4117;53.622;9.958;2022-09-09T13:01:21;18.00;92.90
8152;DHT22;4117;53.622;9.958;2022-09-09T13:03:48;18.00;94.50
8152;DHT22;4117;53.622;9.958;2022-09-09T13:06:20;17.90;98.50
8152;DHT22;4117;53.622;9.958;2022-09-09T13:08:49;17.90;98.40
8152;DHT22;4117;53.622;9.958;2022-09-09T13:11:19;17.90;98.40
8152;DHT22;4117;53.622;9.958;2022-09-09T13:13:51;17.80;98.30
8152;DHT22;4117;53.622;9.958;2022-09-09T13:16:22;17.70;98.30
8152;DHT22;4117;53.622;9.958;2022-09-09T13:18:49;17.70;98.60
8152;DHT22;4117;53.622;9.958;2022-09-09T13:21:16;17.60;98.30
8152;DHT22;4117;53.622;9.958;2022-09-09T13:23:50;17.50;99.90
8152;DHT22;4117;53.622;9.958;2022-09-09T13:26:22;17.50;99.90
8152;DHT22;4117;53.622;9.958;2022-09-09T13:28:50;17.40;99.90
8152;DHT22;4117;53.622;9.958;2022-09-09T13:31:23;17.40;99.90
8152;DHT22;4117;53.622;9.958;2022-09-09T13:33:53;17.30;99.90
8152;DHT22;4117;53.622;9.958;2022-09-09T13:36:28;17.20;99.90
8152;DHT22;4117;53.622;9.958;2022-09-09T13:38:58;17.10;99.90
8152;DHT22;4117;53.622;9.958;2022-09-09T13:41:28;16.40;94.50
8152;DHT22;4117;53.622;9.958;2022-09-09T13:43:56;16.30;99.90
8152;DHT22;4117;53.622;9.958;2022-09-09T13:46:32;16.40;99.90
8152;DHT22;4117;53.622;9.958;2022-09-09T13:49:00;16.40;99.90
8152;DHT22;4117;53.622;9.958;2022-09-09T13:51:35;16.30;99.90
8152;DHT22;4117;53.622;9.958;2022-09-09T13:54:04;16.30;99.90
8152;DHT22;4117;53.622;9.958;2022-09-09T13:56:32;16.30;99.90
8152;DHT22;4117;53.622;9.958;2022-09-09T13:58:58;16.30;99.90
8152;DHT22;4117;53.622;9.958;2022-09-09T14:01:25;16.30;99.90
8152;DHT22;4117;53.622;9.958;2022-09-09T14:03:53;16.30;99.90
8152;DHT22;4117;53.622;9.958;2022-09-09T14:06:19;16.30;99.90
8152;DHT22;4117;53.622;9.958;2022-09-09T14:08:47;16.30;99.90
8152;DHT22;4117;53.622;9.958;2022-09-09T14:11:16;16.30;99.90
8152;DHT22;4117;53.622;9.958;2022-09-09T14:13:43;16.30;99.90
8152;DHT22;4117;53.622;9.958;2022-09-09T14:16:10;16.40;99.90
8152;DHT22;4117;53.622;9.958;2022-09-09T14:18:37;16.40;99.90
8152;DHT22;4117;53.622;9.958;2022-09-09T14:21:04;16.40;99.90
8152;DHT22;4117;53.622;9.958;2022-09-09T14:23:31;16.40;99.90
8152;DHT22;4117;53.622;9.958;2022-09-09T14:25:58;16.40;99.90
8152;DHT22;4117;53.622;9.958;2022-09-09T14:28:26;16.40;99.90
8152;DHT22;4117;53.622;9.958;2022-09-09T14:30:54;16.40;99.90
8152;DHT22;4117;53.622;9.958;2022-09-09T14:33:21;16.50;99.90
8152;DHT22;4117;53.622;9.958;2022-09-09T14:35:55;16.50;99.90
8152;DHT22;4117;53.622;9.958;2022-09-09T14:38:22;16.50;99.90
8152;DHT22;4117;53.622;9.958;2022-09-09T14:40:49;16.50;99.90
8152;DHT22;4117;53.622;9.958;2022-09-09T14:43:16;16.50;99.90
8152;DHT22;4117;53.622;9.958;2022-09-09T14:45:44;16.50;99.90
8152;DHT22;4117;53.622;9.958;2022-09-09T14:48:10;16.50;99.90
8152;DHT22;4117;53.622;9.958;2022-09-09T14:50:37;16.50;99.90
8152;DHT22;4117;53.622;9.958;2022-09-09T14:53:05;16.50;99.90
8152;DHT22;4117;53.622;9.958;2022-09-09T14:55:32;16.50;99.90
8152;DHT22;4117;53.622;9.958;2022-09-09T14:57:59;16.50;99.90
8152;DHT22;4117;53.622;9.958;2022-09-09T15:00:26;16.50;99.90
8152;DHT22;4117;53.622;9.958;2022-09-09T15:02:55;16.50;99.90
8152;DHT22;4117;53.622;9.958;2022-09-09T15:05:22;16.50;99.90
8152;DHT22;4117;53.622;9.958;2022-09-09T15:07:49;16.40;99.90
8152;DHT22;4117;53.622;9.958;2022-09-09T15:10:16;16.40;99.90
8152;DHT22;4117;53.622;9.958;2022-09-09T15:12:44;16.30;99.90
8152;DHT22;4117;53.622;9.958;2022-09-09T15:15:10;16.30;99.90
8152;DHT22;4117;53.622;9.958;2022-09-09T15:17:38;16.30;99.90
8152;DHT22;4117;53.622;9.958;2022-09-09T15:20:07;16.30;99.90
8152;DHT22;4117;53.622;9.958;2022-09-09T15:22:34;16.30;99.90
8152;DHT22;4117;53.622;9.958;2022-09-09T15:25:04;16.30;99.90
8152;DHT22;4117;53.622;9.958;2022-09-09T15:27:31;16.30;99.90
8152;DHT22;4117;53.622;9.958;2022-09-09T15:29:59;16.30;99.90
8152;DHT22;4117;53.622;9.958;2022-09-09T15:32:26;16.30;99.90
8152;DHT22;4117;53.622;9.958;2022-09-09T15:34:53;16.30;99.90
8152;DHT22;4117;53.622;9.958;2022-09-09T15:37:22;16.30;99.90
8152;DHT22;4117;53.622;9.958;2022-09-09T15:39:48;16.30;99.90
8152;DHT22;4117;53.622;9.958;2022-09-09T15:42:15;16.30;99.90
8152;DHT22;4117;53.622;9.958;2022-09-09T15:44:42;16.30;99.90
8152;DHT22;4117;53.622;9.958;2022-09-09T15:47:11;16.30;99.90
8152;DHT22;4117;53.622;9.958;2022-09-09T15:49:39;16.30;99.90
8152;DHT22;4117;53.622;9.958;2022-09-09T15:52:05;16.30;99.90
8152;DHT22;4117;53.622;9.958;2022-09-09T15:54:35;16.30;99.90
8152;DHT22;4117;53.622;9.958;2022-09-09T15:57:06;16.40;99.90
8152;DHT22;4117;53.622;9.958;2022-09-09T15:59:34;16.40;99.90
8152;DHT22;4117;53.622;9.958;2022-09-09T16:02:01;16.40;99.90
8152;DHT22;4117;53.622;9.958;2022-09-09T16:04:28;16.40;99.90
8152;DHT22;4117;53.622;9.958;2022-09-09T16:06:58;16.50;99.90
8152;DHT22;4117;53.622;9.958;2022-09-09T16:09:26;16.50;99.90
8152;DHT22;4117;53.622;9.958;2022-09-09T16:11:56;16.50;99.90
8152;DHT22;4117;53.622;9.958;2022-09-09T16:14:23;16.60;99.90
8152;DHT22;4117;53.622;9.958;2022-09-09T16:16:51;16.60;99.90
8152;DHT22;4117;53.622;9.958;2022-09-09T16:19:18;16.70;99.90
8152;DHT22;4117;53.622;9.958;2022-09-09T16:21:47;16.70;99.90
8152;DHT22;4117;53.622;9.958;2022-09-09T16:24:16;16.70;99.90
8152;DHT22;4117;53.622;9.958;2022-09-09T16:26:46;16.80;99.90
8152;DHT22;4117;53.622;9.958;2022-09-09T16:29:16;16.80;99.90